sensor_id;sensor_type;location;lat;lon;timestamp;temperature;humidity
51557;DHT22;38766;53.194;5.532;2023-10-09T00:01:43;15.50;99.90
51557;DHT22;38766;53.194;5.532;2023-10-09T00:04:10;15.50;99.90
51557;DHT22;38766;53.194;5.532;2023-10-09T00:06:37;15.50;99.90
51557;DHT22;38766;53.194;5.532;2023-10-09T00:09:06;15.40;99.90
51557;DHT22;38766;53.194;5.532;2023-10-09T00:12:04;15.40;99.90
51557;DHT22;38766;53.194;5.532;2023-10-09T00:14:35;15.40;99.90
51557;DHT22;38766;53.194;5.532;2023-10-09T00:17:04;15.40;99.90
51557;DHT22;38766;53.194;5.532;2023-10-09T00:19:50;15.40;99.90
51557;DHT22;38766;53.194;5.532;2023-10-09T00:22:20;15.40;99.90
51557;DHT22;38766;53.194;5.532;2023-10-09T00:24:57;15.40;99.90
51557;DHT22;38766;53.194;5.532;2023-10-09T00:27:47;15.40;99.90
51557;DHT22;38766;53.194;5.532;2023-10-09T00:30:15;15.30;99.90
51557;DHT22;38766;53.194;5.532;2023-10-09T00:32:44;15.40;99.90
51557;DHT22;38766;53.194;5.532;2023-10-09T00:35:30;15.40;99.90
51557;DHT22;38766;53.194;5.532;2023-10-09T00:38:05;15.40;99.90
51557;DHT22;38766;53.194;5.532;2023-10-09T00:40:40;15.40;99.90
51557;DHT22;38766;53.194;5.532;2023-10-09T00:43:13;15.40;99.90
51557;DHT22;38766;53.194;5.532;2023-10-09T00:45:40;15.40;99.90
51557;DHT22;38766;53.194;5.532;2023-10-09T00:48:09;15.40;99.90
51557;DHT22;38766;53.194;5.532;2023-10-09T00:50:35;15.40;99.90
51557;DHT22;38766;53.194;5.532;2023-10-09T00:53:02;15.40;99.90
51557;DHT22;38766;53.194;5.532;2023-10-09T00:55:35;15.50;99.90
51557;DHT22;38766;53.194;5.532;2023-10-09T00:58:15;15.50;99.90
51557;DHT22;38766;53.194;5.532;2023-10-09T01:00:49;15.50;99.90
51557;DHT22;38766;53.194;5.532;2023-10-09T01:03:19;15.50;99.90
51557;DHT22;38766;53.194;5.532;2023-10-09T01:05:56;15.50;99.90
51557;DHT22;38766;53.194;5.532;2023-10-09T01:08:34;15.50;99.90
51557;DHT22;38766;53.194;5.532;2023-10-09T01:11:14;15.60;99.90
51557;DHT22;38766;53.194;5.532;2023-10-09T01:13:55;15.60;99.90
51557;DHT22;38766;53.194;5.532;2023-10-09T01:16:25;15.60;99.90
51557;DHT22;38766;53.194;5.532;2023-10-09T01:18:55;15.70;99.90
51557;DHT22;38766;53.194;5.532;2023-10-09T01:21:24;15.70;99.90
51557;DHT22;38766;53.194;5.532;2023-10-09T01:23:51;15.70;99.90
51557;DHT22;38766;53.194;5.532;2023-10-09T01:26:33;15.80;99.90
51557;DHT22;38766;53.194;5.532;2023-10-09T01:29:18;15.80;99.90
51557;DHT22;38766;53.194;5.532;2023-10-09T01:31:51;15.80;99.90
51557;DHT22;38766;53.194;5.532;2023-10-09T01:34:23;15.90;99.90
51557;DHT22;38766;53.194;5.532;2023-10-09T01:36:52;15.90;99.90
51557;DHT22;38766;53.194;5.532;2023-10-09T01:39:24;15.90;99.90
51557;DHT22;38766;53.194;5.532;2023-10-09T01:41:53;16.00;99.90
51557;DHT22;38766;53.194;5.532;2023-10-09T01:44:31;16.00;99.90
51557;DHT22;38766;53.194;5.532;2023-10-09T01:47:04;16.00;99.90
51557;DHT22;38766;53.194;5.532;2023-10-09T01:49:36;16.00;99.90
51557;DHT22;38766;53.194;5.532;2023-10-09T01:52:07;16.10;99.90
51557;DHT22;38766;53.194;5.532;2023-10-09T01:54:43;16.10;99.90
51557;DHT22;38766;53.194;5.532;2023-10-09T01:57:16;16.10;99.90
51557;DHT22;38766;53.194;5.532;2023-10-09T01:59:48;16.10;99.90
51557;DHT22;38766;53.194;5.532;2023-10-09T02:02:17;16.20;99.90
51557;DHT22;38766;53.194;5.532;2023-10-09T02:04:59;16.20;99.90
51557;DHT22;38766;53.194;5.532;2023-10-09T02:07:36;16.30;99.90
51557;DHT22;38766;53.194;5.532;2023-10-09T02:12:50;16.30;99.90
51557;DHT22;38766;53.194;5.532;2023-10-09T02:15:19;16.30;99.90
51557;DHT22;38766;53.194;5.532;2023-10-09T02:18:05;16.30;99.90
51557;DHT22;38766;53.194;5.532;2023-10-09T02:20:45;16.40;99.90
51557;DHT22;38766;53.194;5.532;2023-10-09T02:23:12;16.40;99.90
51557;DHT22;38766;53.194;5.532;2023-10-09T02:25:55;16.50;99.90
51557;DHT22;38766;53.194;5.532;2023-10-09T02:28:22;16.50;99.90
51557;DHT22;38766;53.194;5.532;2023-10-09T02:30:47;16.60;99.90
51557;DHT22;38766;53.194;5.532;2023-10-09T02:33:17;16.60;99.90
51557;DHT22;38766;53.194;5.532;2023-10-09T02:35:56;16.60;99.90
51557;DHT22;38766;53.194;5.532;2023-10-09T02:38:25;16.70;99.90
51557;DHT22;38766;53.194;5.532;2023-10-09T02:40:52;16.70;99.90
51557;DHT22;38766;53.194;5.532;2023-10-09T02:43:34;16.70;99.90
51557;DHT22;38766;53.194;5.532;2023-10-09T02:46:21;16.70;99.90
51557;DHT22;38766;53.194;5.532;2023-10-09T02:48:55;16.80;99.90
51557;DHT22;38766;53.194;5.532;2023-10-09T02:51:25;16.80;99.90
51557;DHT22;38766;53.194;5.532;2023-10-09T02:53:58;16.80;99.90
51557;DHT22;38766;53.194;5.532;2023-10-09T02:56:25;16.80;99.90
51557;DHT22;38766;53.194;5.532;2023-10-09T02:59:01;16.80;99.90
51557;DHT22;38766;53.194;5.532;2023-10-09T03:01:34;16.80;99.90
51557;DHT22;38766;53.194;5.532;2023-10-09T03:04:03;16.90;99.90
51557;DHT22;38766;53.194;5.532;2023-10-09T03:06:31;16.90;99.90
51557;DHT22;38766;53.194;5.532;2023-10-09T03:08:58;16.90;99.90
51557;DHT22;38766;53.194;5.532;2023-10-09T03:11:24;16.90;99.90
51557;DHT22;38766;53.194;5.532;2023-10-09T03:13:53;16.90;99.90
51557;DHT22;38766;53.194;5.532;2023-10-09T03:16:18;16.90;99.90
51557;DHT22;38766;53.194;5.532;2023-10-09T03:18:51;17.00;99.90
51557;DHT22;38766;53.194;5.532;2023-10-09T03:21:21;16.90;99.90
51557;DHT22;38766;53.194;5.532;2023-10-09T03:23:47;16.90;99.90
51557;DHT22;38766;53.194;5.532;2023-10-09T03:26:19;16.90;99.90
51557;DHT22;38766;53.194;5.532;2023-10-09T03:28:46;16.90;99.90
51557;DHT22;38766;53.194;5.532;2023-10-09T03:31:21;16.90;99.90
51557;DHT22;38766;53.194;5.532;2023-10-09T03:33:47;17.00;99.90
51557;DHT22;38766;53.194;5.532;2023-10-09T03:36:16;16.90;99.90
51557;DHT22;38766;53.194;5.532;2023-10-09T03:38:42;16.90;99.90
51557;DHT22;38766;53.194;5.532;2023-10-09T03:41:08;16.90;99.90
51557;DHT22;38766;53.194;5.532;2023-10-09T03:43:38;17.00;99.90
51557;DHT22;38766;53.194;5.532;2023-10-09T03:46:09;17.00;99.90
51557;DHT22;38766;53.194;5.532;2023-10-09T03:48:47;16.90;99.90
51557;DHT22;38766;53.194;5.532;2023-10-09T03:51:13;16.90;99.90
51557;DHT22;38766;53.194;5.532;2023-10-09T03:53:46;17.00;99.90
51557;DHT22;38766;53.194;5.532;2023-10-09T03:56:12;17.00;99.90
51557;DHT22;38766;53.194;5.532;2023-10-09T03:58:51;17.00;99.90
51557;DHT22;38766;53.194;5.532;2023-10-09T04:01:19;17.00;99.90
51557;DHT22;38766;53.194;5.532;2023-10-09T04:03:59;17.00;99.90
51557;DHT22;38766;53.194;5.532;2023-10-09T04:06:29;16.90;99.90
51557;DHT22;38766;53.194;5.532;2023-10-09T04:09:03;16.90;99.90
51557;DHT22;38766;53.194;5.532;2023-10-09T04:11:42;16.90;99.90
51557;DHT22;38766;53.194;5.532;2023-10-09T04:14:08;16.90;99.90
51557;DHT22;38766;53.194;5.532;2023-10-09T04:16:39;16.90;99.90
51557;DHT22;38766;53.194;5.532;2023-10-09T04:19:17;16.90;99.90
51557;DHT22;38766;53.194;5.532;2023-10-09T04:21:48;16.80;99.90
51557;DHT22;38766;53.194;5.532;2023-10-09T04:24:14;16.80;99.90
51557;DHT22;38766;53.194;5.532;2023-10-09T04:26:45;16.80;99.90
51557;DHT22;38766;53.194;5.532;2023-10-09T04:29:15;16.80;99.90
51557;DHT22;38766;53.194;5.532;2023-10-09T04:31:54;16.80;99.90
51557;DHT22;38766;53.194;5.532;2023-10-09T04:34:25;16.80;99.90
51557;DHT22;38766;53.194;5.532;2023-10-09T04:37:00;16.80;99.90
51557;DHT22;38766;53.194;5.532;2023-10-09T04:39:29;16.70;99.90
51557;DHT22;38766;53.194;5.532;2023-10-09T04:41:59;16.70;99.90
51557;DHT22;38766;53.194;5.532;2023-10-09T04:44:43;16.70;99.90
51557;DHT22;38766;53.194;5.532;2023-10-09T04:47:31;16.80;99.90
51557;DHT22;38766;53.194;5.532;2023-10-09T04:50:24;16.70;99.90
51557;DHT22;38766;53.194;5.532;2023-10-09T04:53:02;16.70;99.90
51557;DHT22;38766;53.194;5.532;2023-10-09T04:55:43;16.70;99.90
51557;DHT22;38766;53.194;5.532;2023-10-09T04:58:25;16.70;99.90
51557;DHT22;38766;53.194;5.532;2023-10-09T05:00:55;16.70;99.90
51557;DHT22;38766;53.194;5.532;2023-10-09T05:03:23;16.70;99.90
51557;DHT22;38766;53.194;5.532;2023-10-09T05:05:52;16.70;99.90
51557;DHT22;38766;53.194;5.532;2023-10-09T05:08:27;16.70;99.90
51557;DHT22;38766;53.194;5.532;2023-10-09T05:11:03;16.60;99.90
51557;DHT22;38766;53.194;5.532;2023-10-09T05:13:33;16.70;99.90
51557;DHT22;38766;53.194;5.532;2023-10-09T05:16:18;16.60;99.90
51557;DHT22;38766;53.194;5.532;2023-10-09T05:18:49;16.70;99.90
51557;DHT22;38766;53.194;5.532;2023-10-09T05:21:53;16.60;99.90
51557;DHT22;38766;53.194;5.532;2023-10-09T05:24:26;16.60;99.90
51557;DHT22;38766;53.194;5.532;2023-10-09T05:26:53;16.60;99.90
51557;DHT22;38766;53.194;5.532;2023-10-09T05:29:22;16.60;99.90
51557;DHT22;38766;53.194;5.532;2023-10-09T05:31:57;16.60;99.90
51557;DHT22;38766;53.194;5.532;2023-10-09T05:34:39;16.60;99.90
51557;DHT22;38766;53.194;5.532;2023-10-09T05:37:31;16.60;99.90
51557;DHT22;38766;53.194;5.532;2023-10-09T05:40:02;16.60;99.90
51557;DHT22;38766;53.194;5.532;2023-10-09T05:42:35;16.60;99.90
51557;DHT22;38766;53.194;5.532;2023-10-09T05:45:16;16.60;99.90
51557;DHT22;38766;53.194;5.532;2023-10-09T05:47:45;16.60;99.90
51557;DHT22;38766;53.194;5.532;2023-10-09T05:50:39;16.60;99.90
51557;DHT22;38766;53.194;5.532;2023-10-09T05:53:24;16.60;99.90
51557;DHT22;38766;53.194;5.532;2023-10-09T05:56:09;16.60;99.90
51557;DHT22;38766;53.194;5.532;2023-10-09T05:58:53;16.60;99.90
51557;DHT22;38766;53.194;5.532;2023-10-09T06:01:45;16.60;99.90
51557;DHT22;38766;53.194;5.532;2023-10-09T06:04:22;16.60;99.90
51557;DHT22;38766;53.194;5.532;2023-10-09T06:07:00;16.60;99.90
51557;DHT22;38766;53.194;5.532;2023-10-09T06:09:36;16.60;99.90
51557;DHT22;38766;53.194;5.532;2023-10-09T06:12:25;16.60;99.90
51557;DHT22;38766;53.194;5.532;2023-10-09T06:15:23;16.60;99.90
51557;DHT22;38766;53.194;5.532;2023-10-09T06:18:16;16.60;99.90
51557;DHT22;38766;53.194;5.532;2023-10-09T06:20:51;16.50;99.90
51557;DHT22;38766;53.194;5.532;2023-10-09T06:23:35;16.60;99.90
51557;DHT22;38766;53.194;5.532;2023-10-09T06:26:37;16.50;99.90
51557;DHT22;38766;53.194;5.532;2023-10-09T06:29:03;16.60;99.90
51557;DHT22;38766;53.194;5.532;2023-10-09T06:31:41;16.50;99.90
51557;DHT22;38766;53.194;5.532;2023-10-09T06:34:26;16.50;99.90
51557;DHT22;38766;53.194;5.532;2023-10-09T06:36:59;16.50;99.90
51557;DHT22;38766;53.194;5.532;2023-10-09T06:39:44;16.50;99.90
51557;DHT22;38766;53.194;5.532;2023-10-09T06:42:16;16.50;99.90
51557;DHT22;38766;53.194;5.532;2023-10-09T06:45:07;16.50;99.90
51557;DHT22;38766;53.194;5.532;2023-10-09T06:47:35;16.50;99.90
51557;DHT22;38766;53.194;5.532;2023-10-09T06:50:10;16.50;99.90
51557;DHT22;38766;53.194;5.532;2023-10-09T06:52:48;16.50;99.90
51557;DHT22;38766;53.194;5.532;2023-10-09T06:55:27;16.50;99.90
51557;DHT22;38766;53.194;5.532;2023-10-09T06:58:00;16.50;99.90
51557;DHT22;38766;53.194;5.532;2023-10-09T07:00:30;16.50;99.90
51557;DHT22;38766;53.194;5.532;2023-10-09T07:03:14;16.40;99.90
51557;DHT22;38766;53.194;5.532;2023-10-09T07:05:43;16.50;99.90
51557;DHT22;38766;53.194;5.532;2023-10-09T07:08:30;16.50;99.90
51557;DHT22;38766;53.194;5.532;2023-10-09T07:11:06;16.50;99.90
51557;DHT22;38766;53.194;5.532;2023-10-09T07:14:20;16.50;99.90
51557;DHT22;38766;53.194;5.532;2023-10-09T07:19:29;16.50;99.90
51557;DHT22;38766;53.194;5.532;2023-10-09T07:22:11;16.50;99.90
51557;DHT22;38766;53.194;5.532;2023-10-09T07:24:50;16.50;99.90
51557;DHT22;38766;53.194;5.532;2023-10-09T07:27:26;16.50;99.90
51557;DHT22;38766;53.194;5.532;2023-10-09T07:30:16;16.50;99.90
51557;DHT22;38766;53.194;5.532;2023-10-09T07:33:06;16.50;99.90
51557;DHT22;38766;53.194;5.532;2023-10-09T07:35:46;16.50;99.90
51557;DHT22;38766;53.194;5.532;2023-10-09T07:38:19;16.50;99.90
51557;DHT22;38766;53.194;5.532;2023-10-09T07:40:51;16.50;99.90
51557;DHT22;38766;53.194;5.532;2023-10-09T07:43:30;16.60;99.90
51557;DHT22;38766;53.194;5.532;2023-10-09T07:46:08;16.50;99.90
51557;DHT22;38766;53.194;5.532;2023-10-09T07:48:53;16.50;99.90
51557;DHT22;38766;53.194;5.532;2023-10-09T07:51:23;16.60;99.90
51557;DHT22;38766;53.194;5.532;2023-10-09T07:53:54;16.60;99.90
51557;DHT22;38766;53.194;5.532;2023-10-09T07:56:26;16.60;99.90
51557;DHT22;38766;53.194;5.532;2023-10-09T07:58:56;16.60;99.90
51557;DHT22;38766;53.194;5.532;2023-10-09T08:01:26;16.60;99.90
51557;DHT22;38766;53.194;5.532;2023-10-09T08:04:02;16.60;99.90
51557;DHT22;38766;53.194;5.532;2023-10-09T08:06:30;16.60;99.90
51557;DHT22;38766;53.194;5.532;2023-10-09T08:09:08;16.60;99.90
51557;DHT22;38766;53.194;5.532;2023-10-09T08:11:41;16.70;99.90
51557;DHT22;38766;53.194;5.532;2023-10-09T08:14:13;16.60;99.90
51557;DHT22;38766;53.194;5.532;2023-10-09T08:16:58;16.70;99.90
51557;DHT22;38766;53.194;5.532;2023-10-09T08:19:50;16.70;99.90
51557;DHT22;38766;53.194;5.532;2023-10-09T08:22:30;16.70;99.90
51557;DHT22;38766;53.194;5.532;2023-10-09T08:24:56;16.70;99.90
51557;DHT22;38766;53.194;5.532;2023-10-09T08:27:30;16.70;99.90
51557;DHT22;38766;53.194;5.532;2023-10-09T08:30:04;16.70;99.90
51557;DHT22;38766;53.194;5.532;2023-10-09T08:32:49;16.70;99.90
51557;DHT22;38766;53.194;5.532;2023-10-09T08:35:35;16.70;99.90
51557;DHT22;38766;53.194;5.532;2023-10-09T08:38:12;16.70;99.90
51557;DHT22;38766;53.194;5.532;2023-10-09T08:40:39;16.70;99.90
51557;DHT22;38766;53.194;5.532;2023-10-09T08:43:14;16.70;99.90
51557;DHT22;38766;53.194;5.532;2023-10-09T08:45:46;16.80;99.90
51557;DHT22;38766;53.194;5.532;2023-10-09T08:48:12;16.80;99.90
51557;DHT22;38766;53.194;5.532;2023-10-09T08:50:45;16.80;99.90
51557;DHT22;38766;53.194;5.532;2023-10-09T08:53:12;16.90;99.90
51557;DHT22;38766;53.194;5.532;2023-10-09T08:55:39;16.80;99.90
51557;DHT22;38766;53.194;5.532;2023-10-09T08:58:05;16.90;99.90
51557;DHT22;38766;53.194;5.532;2023-10-09T09:00:47;16.90;99.90
51557;DHT22;38766;53.194;5.532;2023-10-09T09:03:17;17.00;99.90
51557;DHT22;38766;53.194;5.532;2023-10-09T09:05:47;17.00;99.90
51557;DHT22;38766;53.194;5.532;2023-10-09T09:08:25;17.00;99.90
51557;DHT22;38766;53.194;5.532;2023-10-09T09:11:08;17.00;99.90
51557;DHT22;38766;53.194;5.532;2023-10-09T09:16:23;17.00;99.90
51557;DHT22;38766;53.194;5.532;2023-10-09T09:19:00;17.10;99.90
51557;DHT22;38766;53.194;5.532;2023-10-09T09:21:30;17.10;99.90
51557;DHT22;38766;53.194;5.532;2023-10-09T09:24:03;17.10;99.90
51557;DHT22;38766;53.194;5.532;2023-10-09T09:26:37;17.10;99.90
51557;DHT22;38766;53.194;5.532;2023-10-09T09:29:06;17.00;99.90
51557;DHT22;38766;53.194;5.532;2023-10-09T09:31:35;17.10;99.90
51557;DHT22;38766;53.194;5.532;2023-10-09T09:34:07;17.10;99.90
51557;DHT22;38766;53.194;5.532;2023-10-09T09:36:52;17.10;99.90
51557;DHT22;38766;53.194;5.532;2023-10-09T09:39:27;17.10;99.90
51557;DHT22;38766;53.194;5.532;2023-10-09T09:41:58;17.10;99.90
51557;DHT22;38766;53.194;5.532;2023-10-09T09:44:33;17.10;99.90
51557;DHT22;38766;53.194;5.532;2023-10-09T09:47:09;17.10;99.90
51557;DHT22;38766;53.194;5.532;2023-10-09T09:49:42;17.10;99.90
51557;DHT22;38766;53.194;5.532;2023-10-09T09:52:08;17.20;99.90
51557;DHT22;38766;53.194;5.532;2023-10-09T09:54:38;17.20;99.90
51557;DHT22;38766;53.194;5.532;2023-10-09T09:57:04;17.20;99.90
51557;DHT22;38766;53.194;5.532;2023-10-09T09:59:40;17.20;99.90
51557;DHT22;38766;53.194;5.532;2023-10-09T10:02:10;17.20;99.90
51557;DHT22;38766;53.194;5.532;2023-10-09T10:04:42;17.30;99.90
51557;DHT22;38766;53.194;5.532;2023-10-09T10:07:10;17.30;99.90
51557;DHT22;38766;53.194;5.532;2023-10-09T10:09:39;17.30;99.90
51557;DHT22;38766;53.194;5.532;2023-10-09T10:12:11;17.30;99.90
51557;DHT22;38766;53.194;5.532;2023-10-09T10:14:58;17.30;99.90
51557;DHT22;38766;53.194;5.532;2023-10-09T10:17:25;17.30;99.90
51557;DHT22;38766;53.194;5.532;2023-10-09T10:22:27;17.30;99.90
51557;DHT22;38766;53.194;5.532;2023-10-09T10:24:53;17.30;99.90
51557;DHT22;38766;53.194;5.532;2023-10-09T10:27:25;17.30;99.90
51557;DHT22;38766;53.194;5.532;2023-10-09T10:32:56;17.30;99.90
51557;DHT22;38766;53.194;5.532;2023-10-09T10:35:24;17.30;99.90
51557;DHT22;38766;53.194;5.532;2023-10-09T10:38:31;17.30;99.90
51557;DHT22;38766;53.194;5.532;2023-10-09T10:41:18;17.40;99.90
51557;DHT22;38766;53.194;5.532;2023-10-09T10:43:48;17.50;99.90
51557;DHT22;38766;53.194;5.532;2023-10-09T10:46:21;17.60;99.90
51557;DHT22;38766;53.194;5.532;2023-10-09T10:49:00;17.80;99.90
51557;DHT22;38766;53.194;5.532;2023-10-09T10:51:36;17.80;99.90
51557;DHT22;38766;53.194;5.532;2023-10-09T10:54:07;17.90;99.90
51557;DHT22;38766;53.194;5.532;2023-10-09T10:56:51;17.90;99.90
51557;DHT22;38766;53.194;5.532;2023-10-09T10:59:20;17.90;99.90
51557;DHT22;38766;53.194;5.532;2023-10-09T11:01:49;17.90;99.90
51557;DHT22;38766;53.194;5.532;2023-10-09T11:04:23;17.90;99.90
51557;DHT22;38766;53.194;5.532;2023-10-09T11:06:56;17.90;99.90
51557;DHT22;38766;53.194;5.532;2023-10-09T11:09:46;17.80;99.90
51557;DHT22;38766;53.194;5.532;2023-10-09T11:15:12;17.80;99.90
51557;DHT22;38766;53.194;5.532;2023-10-09T11:18:00;17.80;99.90
51557;DHT22;38766;53.194;5.532;2023-10-09T11:20:42;17.80;99.90
51557;DHT22;38766;53.194;5.532;2023-10-09T11:23:22;17.80;99.90
51557;DHT22;38766;53.194;5.532;2023-10-09T11:26:15;17.80;99.90
51557;DHT22;38766;53.194;5.532;2023-10-09T11:29:05;17.90;99.90
51557;DHT22;38766;53.194;5.532;2023-10-09T11:31:42;17.80;99.90
51557;DHT22;38766;53.194;5.532;2023-10-09T11:34:22;17.80;99.90
51557;DHT22;38766;53.194;5.532;2023-10-09T11:37:16;17.70;99.90
51557;DHT22;38766;53.194;5.532;2023-10-09T11:39:42;17.70;99.90
51557;DHT22;38766;53.194;5.532;2023-10-09T11:42:20;17.70;99.90
51557;DHT22;38766;53.194;5.532;2023-10-09T11:45:25;17.70;99.90
51557;DHT22;38766;53.194;5.532;2023-10-09T11:47:56;17.70;99.90
51557;DHT22;38766;53.194;5.532;2023-10-09T11:50:45;17.70;99.90
51557;DHT22;38766;53.194;5.532;2023-10-09T11:53:40;17.70;99.90
51557;DHT22;38766;53.194;5.532;2023-10-09T11:56:08;17.70;99.90
51557;DHT22;38766;53.194;5.532;2023-10-09T11:58:38;17.70;99.90
51557;DHT22;38766;53.194;5.532;2023-10-09T12:01:11;17.70;99.90
51557;DHT22;38766;53.194;5.532;2023-10-09T12:03:43;17.70;99.90
51557;DHT22;38766;53.194;5.532;2023-10-09T12:06:15;17.70;99.90
51557;DHT22;38766;53.194;5.532;2023-10-09T12:08:48;17.80;99.90
51557;DHT22;38766;53.194;5.532;2023-10-09T12:11:17;17.80;99.90
51557;DHT22;38766;53.194;5.532;2023-10-09T12:13:54;17.90;99.90
51557;DHT22;38766;53.194;5.532;2023-10-09T12:16:23;17.90;99.90
51557;DHT22;38766;53.194;5.532;2023-10-09T12:18:54;18.00;99.90
51557;DHT22;38766;53.194;5.532;2023-10-09T12:21:20;18.00;99.90
51557;DHT22;38766;53.194;5.532;2023-10-09T12:23:46;18.10;99.90
51557;DHT22;38766;53.194;5.532;2023-10-09T12:26:13;18.10;99.90
51557;DHT22;38766;53.194;5.532;2023-10-09T12:28:43;18.10;99.90
51557;DHT22;38766;53.194;5.532;2023-10-09T12:31:15;18.10;99.90
51557;DHT22;38766;53.194;5.532;2023-10-09T12:33:41;18.10;99.90
51557;DHT22;38766;53.194;5.532;2023-10-09T12:36:16;18.10;99.90
51557;DHT22;38766;53.194;5.532;2023-10-09T12:38:48;18.10;99.90
51557;DHT22;38766;53.194;5.532;2023-10-09T12:41:24;18.10;99.90
51557;DHT22;38766;53.194;5.532;2023-10-09T12:43:57;18.10;99.90
51557;DHT22;38766;53.194;5.532;2023-10-09T12:46:26;18.30;99.90
51557;DHT22;38766;53.194;5.532;2023-10-09T12:48:53;18.30;99.90
51557;DHT22;38766;53.194;5.532;2023-10-09T12:51:22;18.40;99.90
51557;DHT22;38766;53.194;5.532;2023-10-09T12:53:55;18.40;99.90
51557;DHT22;38766;53.194;5.532;2023-10-09T12:56:29;18.40;99.90
51557;DHT22;38766;53.194;5.532;2023-10-09T12:59:01;18.40;99.90
51557;DHT22;38766;53.194;5.532;2023-10-09T13:01:30;18.40;99.90
51557;DHT22;38766;53.194;5.532;2023-10-09T13:04:11;18.30;99.90
51557;DHT22;38766;53.194;5.532;2023-10-09T13:06:40;18.30;99.90
51557;DHT22;38766;53.194;5.532;2023-10-09T13:09:18;18.30;99.90
51557;DHT22;38766;53.194;5.532;2023-10-09T13:12:09;18.20;99.90
51557;DHT22;38766;53.194;5.532;2023-10-09T13:14:35;18.20;99.90
51557;DHT22;38766;53.194;5.532;2023-10-09T13:17:01;18.10;99.90
51557;DHT22;38766;53.194;5.532;2023-10-09T13:19:34;18.10;99.90
51557;DHT22;38766;53.194;5.532;2023-10-09T13:21:59;18.10;99.90
51557;DHT22;38766;53.194;5.532;2023-10-09T13:24:29;18.10;99.90
51557;DHT22;38766;53.194;5.532;2023-10-09T13:26:55;18.00;99.90
51557;DHT22;38766;53.194;5.532;2023-10-09T13:29:24;18.00;99.90
51557;DHT22;38766;53.194;5.532;2023-10-09T13:31:50;18.00;99.90
51557;DHT22;38766;53.194;5.532;2023-10-09T13:34:18;18.00;99.90
51557;DHT22;38766;53.194;5.532;2023-10-09T13:36:44;18.00;99.90
51557;DHT22;38766;53.194;5.532;2023-10-09T13:39:19;17.90;99.90
51557;DHT22;38766;53.194;5.532;2023-10-09T13:47:04;17.90;99.90
51557;DHT22;38766;53.194;5.532;2023-10-09T13:49:45;17.90;99.90
51557;DHT22;38766;53.194;5.532;2023-10-09T13:52:10;17.80;99.90
51557;DHT22;38766;53.194;5.532;2023-10-09T13:54:43;17.90;99.90
51557;DHT22;38766;53.194;5.532;2023-10-09T13:57:14;17.90;99.90
51557;DHT22;38766;53.194;5.532;2023-10-09T13:59:41;17.80;99.90
51557;DHT22;38766;53.194;5.532;2023-10-09T14:02:19;17.90;99.90
51557;DHT22;38766;53.194;5.532;2023-10-09T14:04:46;17.90;99.90
51557;DHT22;38766;53.194;5.532;2023-10-09T14:07:15;17.90;99.90
51557;DHT22;38766;53.194;5.532;2023-10-09T14:09:45;17.80;99.90
51557;DHT22;38766;53.194;5.532;2023-10-09T14:12:21;17.80;99.90
51557;DHT22;38766;53.194;5.532;2023-10-09T14:14:48;17.80;99.90
51557;DHT22;38766;53.194;5.532;2023-10-09T14:17:17;17.80;99.90
51557;DHT22;38766;53.194;5.532;2023-10-09T14:19:49;17.80;99.90
51557;DHT22;38766;53.194;5.532;2023-10-09T14:22:28;17.80;99.90
51557;DHT22;38766;53.194;5.532;2023-10-09T14:24:59;17.80;99.90
51557;DHT22;38766;53.194;5.532;2023-10-09T14:27:27;17.80;99.90
51557;DHT22;38766;53.194;5.532;2023-10-09T14:29:56;17.80;99.90
51557;DHT22;38766;53.194;5.532;2023-10-09T14:32:24;17.80;99.90
51557;DHT22;38766;53.194;5.532;2023-10-09T14:34:55;17.80;99.90
51557;DHT22;38766;53.194;5.532;2023-10-09T14:37:27;17.80;99.90
51557;DHT22;38766;53.194;5.532;2023-10-09T14:39:52;17.90;99.90
51557;DHT22;38766;53.194;5.532;2023-10-09T14:42:20;17.80;99.90
51557;DHT22;38766;53.194;5.532;2023-10-09T14:44:49;17.80;99.90
51557;DHT22;38766;53.194;5.532;2023-10-09T14:47:16;17.70;99.90
51557;DHT22;38766;53.194;5.532;2023-10-09T14:49:48;17.70;99.90
51557;DHT22;38766;53.194;5.532;2023-10-09T14:52:14;17.70;99.90
51557;DHT22;38766;53.194;5.532;2023-10-09T14:54:44;17.60;99.90
51557;DHT22;38766;53.194;5.532;2023-10-09T14:57:15;17.60;99.90
51557;DHT22;38766;53.194;5.532;2023-10-09T14:59:41;17.60;99.90
51557;DHT22;38766;53.194;5.532;2023-10-09T15:02:10;17.60;99.90
51557;DHT22;38766;53.194;5.532;2023-10-09T15:04:37;17.50;99.90
51557;DHT22;38766;53.194;5.532;2023-10-09T15:07:04;17.60;99.90
51557;DHT22;38766;53.194;5.532;2023-10-09T15:09:35;17.60;99.90
51557;DHT22;38766;53.194;5.532;2023-10-09T15:12:05;17.60;99.90
51557;DHT22;38766;53.194;5.532;2023-10-09T15:14:32;17.60;99.90
51557;DHT22;38766;53.194;5.532;2023-10-09T15:17:01;17.60;99.90
51557;DHT22;38766;53.194;5.532;2023-10-09T15:19:28;17.50;99.90
51557;DHT22;38766;53.194;5.532;2023-10-09T15:21:57;17.50;99.90
51557;DHT22;38766;53.194;5.532;2023-10-09T15:24:27;17.50;99.90
51557;DHT22;38766;53.194;5.532;2023-10-09T15:26:55;17.50;99.90
51557;DHT22;38766;53.194;5.532;2023-10-09T15:29:33;17.40;99.90
51557;DHT22;38766;53.194;5.532;2023-10-09T15:32:00;17.40;99.90
51557;DHT22;38766;53.194;5.532;2023-10-09T15:34:33;17.40;99.90
51557;DHT22;38766;53.194;5.532;2023-10-09T15:37:03;17.30;99.90
51557;DHT22;38766;53.194;5.532;2023-10-09T15:39:34;17.30;99.90
51557;DHT22;38766;53.194;5.532;2023-10-09T15:42:00;17.30;99.90
51557;DHT22;38766;53.194;5.532;2023-10-09T15:44:30;17.30;99.90
51557;DHT22;38766;53.194;5.532;2023-10-09T15:46:59;17.30;99.90
51557;DHT22;38766;53.194;5.532;2023-10-09T15:49:29;17.20;99.90
51557;DHT22;38766;53.194;5.532;2023-10-09T15:51:56;17.20;99.90
51557;DHT22;38766;53.194;5.532;2023-10-09T15:54:24;17.20;99.90
51557;DHT22;38766;53.194;5.532;2023-10-09T15:56:49;17.20;99.90
51557;DHT22;38766;53.194;5.532;2023-10-09T15:59:15;17.10;99.90
51557;DHT22;38766;53.194;5.532;2023-10-09T16:01:42;17.10;99.90
51557;DHT22;38766;53.194;5.532;2023-10-09T16:04:09;17.00;99.90
51557;DHT22;38766;53.194;5.532;2023-10-09T16:06:37;17.10;99.90
51557;DHT22;38766;53.194;5.532;2023-10-09T16:09:07;17.00;99.90
51557;DHT22;38766;53.194;5.532;2023-10-09T16:11:37;17.00;99.90
51557;DHT22;38766;53.194;5.532;2023-10-09T16:14:05;17.00;99.90
51557;DHT22;38766;53.194;5.532;2023-10-09T16:16:36;17.00;99.90
51557;DHT22;38766;53.194;5.532;2023-10-09T16:19:07;17.00;99.90
51557;DHT22;38766;53.194;5.532;2023-10-09T16:21:35;17.00;99.90
51557;DHT22;38766;53.194;5.532;2023-10-09T16:24:01;17.00;99.90
51557;DHT22;38766;53.194;5.532;2023-10-09T16:26:27;17.00;99.90
51557;DHT22;38766;53.194;5.532;2023-10-09T16:28:54;17.00;99.90
51557;DHT22;38766;53.194;5.532;2023-10-09T16:31:20;16.90;99.90
51557;DHT22;38766;53.194;5.532;2023-10-09T16:33:46;16.90;99.90